Time;durP1;ratioP1;P1;durP2;ratioP2;P2;SDS_P1;SDS_P2;PMS_P1;PMS_P2;Temp;Humidity;BMP_temperature;BMP_pressure;BME280_temperature;BME280_humidity;BME280_pressure;Samples;Min_cycle;Max_cycle;Signal;HPM_P1;HPM_P2
2022/10/01 00:00:00;;;;;;;32.80;22.00;;;;;;;;;;4996629;28;20089;-76
2022/10/01 00:02:27;;;;;;;29.30;19.02;;;;;;;;;;4996216;28;20022;-77
2022/10/01 00:04:53;;;;;;;29.15;17.98;;;;;;;;;;4995397;28;20023;-75
2022/10/01 00:07:19;;;;;;;27.48;17.98;;;;;;;;;;4995068;28;20062;-75
2022/10/01 00:09:46;;;;;;;28.27;17.85;;;;;;;;;;4994951;28;20046;-75
2022/10/01 00:12:14;;;;;;;31.13;19.70;;;;;;;;;;4995103;28;20121;-75
2022/10/01 00:14:40;;;;;;;25.33;16.33;;;;;;;;;;4994761;28;20030;-75
2022/10/01 00:17:06;;;;;;;28.25;17.08;;;;;;;;;;4994791;28;20097;-77
2022/10/01 00:19:32;;;;;;;31.70;19.40;;;;;;;;;;4996061;28;20538;-76
2022/10/01 00:21:58;;;;;;;26.42;16.58;;;;;;;;;;4994897;28;20210;-76
2022/10/01 00:24:25;;;;;;;26.98;16.88;;;;;;;;;;4996225;28;20054;-77
2022/10/01 00:26:51;;;;;;;27.00;16.08;;;;;;;;;;4995822;28;20033;-77
2022/10/01 00:29:17;;;;;;;30.27;16.85;;;;;;;;;;4996037;28;20391;-77
2022/10/01 00:31:43;;;;;;;29.55;18.42;;;;;;;;;;4994675;28;20026;-80
2022/10/01 00:34:10;;;;;;;29.17;19.65;;;;;;;;;;4994641;28;20472;-75
2022/10/01 00:36:36;;;;;;;28.08;16.48;;;;;;;;;;4995858;28;20108;-76
2022/10/01 00:39:03;;;;;;;25.23;16.27;;;;;;;;;;4995599;28;20050;-77
2022/10/01 00:41:30;;;;;;;27.73;18.42;;;;;;;;;;4994611;28;20467;-75
2022/10/01 00:44:01;;;;;;;28.48;17.75;;;;;;;;;;4994467;28;20121;-77
2022/10/01 00:46:38;;;;;;;28.40;18.60;;;;;;;;;;4994384;28;20030;-76
2022/10/01 00:49:06;;;;;;;24.73;16.58;;;;;;;;;;4995385;28;20033;-76
2022/10/01 00:51:34;;;;;;;28.10;18.50;;;;;;;;;;4994320;28;20064;-76
2022/10/01 00:54:07;;;;;;;28.00;16.90;;;;;;;;;;4995460;28;20038;-76
2022/10/01 00:56:33;;;;;;;27.60;16.42;;;;;;;;;;4995467;28;20033;-75
2022/10/01 00:58:59;;;;;;;27.73;17.30;;;;;;;;;;4995406;28;20026;-76
2022/10/01 01:01:27;;;;;;;28.30;17.77;;;;;;;;;;4995122;28;20150;-79
2022/10/01 01:03:53;;;;;;;33.10;19.15;;;;;;;;;;4993688;28;20364;-80
2022/10/01 01:06:19;;;;;;;28.38;18.73;;;;;;;;;;4993999;28;20054;-76
2022/10/01 01:08:47;;;;;;;31.85;21.38;;;;;;;;;;4994676;28;20449;-75
2022/10/01 01:11:17;;;;;;;33.33;17.95;;;;;;;;;;4993607;28;20026;-75
2022/10/01 01:13:51;;;;;;;29.65;17.70;;;;;;;;;;4994548;28;20444;-75
2022/10/01 01:16:19;;;;;;;32.35;19.42;;;;;;;;;;4993775;28;20093;-74
2022/10/01 01:18:51;;;;;;;35.00;21.65;;;;;;;;;;4994880;28;20018;-75
2022/10/01 01:21:33;;;;;;;35.10;21.20;;;;;;;;;;4993578;28;20073;-75
2022/10/01 01:23:59;;;;;;;39.65;25.42;;;;;;;;;;4993662;28;20100;-76
2022/10/01 01:26:34;;;;;;;36.95;21.60;;;;;;;;;;4995030;28;20030;-76
2022/10/01 01:29:18;;;;;;;40.05;23.55;;;;;;;;;;4994698;28;20030;-75
2022/10/01 01:31:45;;;;;;;35.50;21.60;;;;;;;;;;4993519;28;20026;-76
2022/10/01 01:34:12;;;;;;;33.40;20.77;;;;;;;;;;4993565;28;20034;-77
2022/10/01 01:36:42;;;;;;;34.17;20.42;;;;;;;;;;4993426;28;20034;-77
2022/10/01 01:39:09;;;;;;;31.77;20.83;;;;;;;;;;4994680;28;20046;-76
2022/10/01 01:41:38;;;;;;;33.13;21.55;;;;;;;;;;4993312;28;20108;-74
2022/10/01 01:44:07;;;;;;;33.50;20.55;;;;;;;;;;4994439;28;20030;-75
2022/10/01 01:46:35;;;;;;;31.52;19.65;;;;;;;;;;4993199;28;20030;-76
2022/10/01 01:49:03;;;;;;;33.85;20.63;;;;;;;;;;4994534;28;20029;-76
2022/10/01 01:51:30;;;;;;;37.75;22.67;;;;;;;;;;4994605;28;20062;-76
2022/10/01 01:53:56;;;;;;;32.83;19.77;;;;;;;;;;4994462;28;20066;-75
2022/10/01 01:56:22;;;;;;;37.30;21.33;;;;;;;;;;4994240;28;20045;-81
2022/10/01 01:58:49;;;;;;;32.03;21.02;;;;;;;;;;4993164;28;20161;-82
2022/10/01 02:01:33;;;;;;;35.88;21.13;;;;;;;;;;4993030;28;20041;-76
2022/10/01 02:04:01;;;;;;;37.95;20.88;;;;;;;;;;4993214;28;20033;-81
2022/10/01 02:06:27;;;;;;;34.80;22.20;;;;;;;;;;4992874;28;20034;-77
2022/10/01 02:08:59;;;;;;;32.63;20.30;;;;;;;;;;4994257;28;20031;-81
2022/10/01 02:11:28;;;;;;;32.35;20.08;;;;;;;;;;4993087;28;20491;-79
2022/10/01 02:13:58;;;;;;;31.88;19.65;;;;;;;;;;4992548;28;20027;-76
2022/10/01 02:16:31;;;;;;;36.88;21.70;;;;;;;;;;4992675;28;20562;-79
2022/10/01 02:19:03;;;;;;;38.67;24.05;;;;;;;;;;4992874;28;20027;-76
2022/10/01 02:21:34;;;;;;;34.90;20.70;;;;;;;;;;4992781;28;20471;-76
2022/10/01 02:24:04;;;;;;;31.73;20.20;;;;;;;;;;4992648;28;20113;-76
2022/10/01 02:26:31;;;;;;;32.55;20.40;;;;;;;;;;4992657;28;20026;-76
2022/10/01 02:29:00;;;;;;;34.05;20.85;;;;;;;;;;4992728;28;20033;-82
2022/10/01 02:31:28;;;;;;;33.30;20.60;;;;;;;;;;4993785;28;20058;-78
2022/10/01 02:33:55;;;;;;;35.53;23.73;;;;;;;;;;4994287;28;20038;-77
2022/10/01 02:36:23;;;;;;;35.17;21.38;;;;;;;;;;4992752;28;20038;-77
2022/10/01 02:38:51;;;;;;;31.63;20.15;;;;;;;;;;4992697;28;20027;-76
2022/10/01 02:41:20;;;;;;;32.72;20.65;;;;;;;;;;4992433;28;20026;-77
2022/10/01 02:43:52;;;;;;;37.00;23.45;;;;;;;;;;4992642;28;20038;-77
2022/10/01 02:46:21;;;;;;;37.67;21.35;;;;;;;;;;4992716;28;20427;-77
2022/10/01 02:48:47;;;;;;;38.13;23.08;;;;;;;;;;4992620;28;20022;-78
2022/10/01 02:51:49;;;;;;;33.72;22.98;;;;;;;;;;4992648;28;20038;-77
2022/10/01 02:54:18;;;;;;;29.13;18.77;;;;;;;;;;4899044;29;20024;-83
2022/10/01 02:57:45;;;;;;;32.35;20.17;;;;;;;;;;4975298;28;20146;-81
2022/10/01 02:59:40;;;;;;;33.00;20.17;;;;;;;;;;4984905;28;20026;-77
2022/10/01 03:02:06;;;;;;;32.60;22.27;;;;;;;;;;4992425;28;20031;-77
2022/10/01 03:04:32;;;;;;;31.17;19.00;;;;;;;;;;4992362;28;20391;-77
2022/10/01 03:07:02;;;;;;;30.95;19.75;;;;;;;;;;4992275;28;20031;-76
2022/10/01 03:09:30;;;;;;;33.05;20.75;;;;;;;;;;4992298;28;20026;-82
2022/10/01 03:11:56;;;;;;;39.70;21.38;;;;;;;;;;4992385;28;20038;-82
2022/10/01 03:14:23;;;;;;;30.88;19.75;;;;;;;;;;4992559;28;20061;-76
2022/10/01 03:16:49;;;;;;;32.30;20.30;;;;;;;;;;4992257;28;20557;-77
2022/10/01 03:19:15;;;;;;;33.00;20.58;;;;;;;;;;4992332;28;20042;-82
2022/10/01 03:21:42;;;;;;;34.90;22.88;;;;;;;;;;4992503;28;20112;-82
2022/10/01 03:24:08;;;;;;;35.50;21.73;;;;;;;;;;4992273;28;20030;-75
2022/10/01 03:26:35;;;;;;;30.23;18.20;;;;;;;;;;4994595;28;20475;-77
2022/10/01 03:29:01;;;;;;;31.45;21.15;;;;;;;;;;4996135;28;20050;-80
2022/10/01 03:31:27;;;;;;;35.13;22.33;;;;;;;;;;4995889;28;20038;-76
2022/10/01 03:33:53;;;;;;;32.00;19.50;;;;;;;;;;4997260;28;20055;-81
2022/10/01 03:36:19;;;;;;;35.63;23.75;;;;;;;;;;4995830;28;20034;-83
2022/10/01 03:38:45;;;;;;;29.65;18.13;;;;;;;;;;4996021;28;20030;-77
2022/10/01 03:41:11;;;;;;;36.53;23.45;;;;;;;;;;4995928;28;20487;-83
2022/10/01 03:43:37;;;;;;;32.05;19.30;;;;;;;;;;4997140;28;20035;-83
2022/10/01 03:46:04;;;;;;;31.88;20.77;;;;;;;;;;4995390;28;20038;-75
2022/10/01 03:48:30;;;;;;;33.00;21.92;;;;;;;;;;4995797;28;20117;-78
2022/10/01 03:50:57;;;;;;;33.70;20.95;;;;;;;;;;4995381;28;20518;-75
2022/10/01 03:53:23;;;;;;;33.60;21.48;;;;;;;;;;4996754;28;20023;-76
2022/10/01 03:55:50;;;;;;;31.73;20.08;;;;;;;;;;4996570;28;20057;-77
2022/10/01 03:58:17;;;;;;;38.35;23.70;;;;;;;;;;4995253;28;20053;-77
2022/10/01 04:00:43;;;;;;;33.53;21.10;;;;;;;;;;4995278;28;20153;-76
2022/10/01 04:03:10;;;;;;;34.83;22.02;;;;;;;;;;4996350;28;20094;-77
2022/10/01 04:05:36;;;;;;;35.13;21.95;;;;;;;;;;4995505;28;20026;-82
2022/10/01 04:08:02;;;;;;;39.88;22.63;;;;;;;;;;4995530;28;20033;-77
2022/10/01 04:10:28;;;;;;;35.22;21.98;;;;;;;;;;4995318;28;20077;-82
2022/10/01 04:12:54;;;;;;;32.22;20.00;;;;;;;;;;4996380;28;20025;-77
2022/10/01 04:15:21;;;;;;;35.13;21.67;;;;;;;;;;4995123;28;20104;-76
2022/10/01 04:17:47;;;;;;;35.50;19.83;;;;;;;;;;4995040;28;20027;-77
2022/10/01 04:20:13;;;;;;;35.85;23.15;;;;;;;;;;4995098;28;20023;-80
2022/10/01 04:22:40;;;;;;;34.10;20.33;;;;;;;;;;4994897;28;20037;-79
2022/10/01 04:25:09;;;;;;;33.35;21.17;;;;;;;;;;4995024;28;20029;-80
2022/10/01 04:27:56;;;;;;;33.65;22.40;;;;;;;;;;4994260;28;20117;-79
2022/10/01 04:30:22;;;;;;;30.10;19.98;;;;;;;;;;4995666;28;20034;-78
2022/10/01 04:32:48;;;;;;;32.33;22.38;;;;;;;;;;4994511;28;20022;-84
2022/10/01 04:35:14;;;;;;;31.50;20.23;;;;;;;;;;4994553;28;20026;-79
2022/10/01 04:37:40;;;;;;;34.78;20.85;;;;;;;;;;4993804;28;20506;-77
2022/10/01 04:40:09;;;;;;;32.25;20.52;;;;;;;;;;4994130;28;20061;-79
2022/10/01 04:42:38;;;;;;;31.42;21.63;;;;;;;;;;4994341;28;20051;-78
2022/10/01 04:45:04;;;;;;;30.52;20.55;;;;;;;;;;4994483;28;20022;-79
2022/10/01 04:47:30;;;;;;;34.47;22.98;;;;;;;;;;4995665;28;20496;-77
2022/10/01 04:49:56;;;;;;;32.83;21.38;;;;;;;;;;4994421;28;20030;-80
2022/10/01 04:52:22;;;;;;;33.58;21.90;;;;;;;;;;4995604;28;20030;-80
2022/10/01 04:54:51;;;;;;;30.27;19.38;;;;;;;;;;4993884;28;20398;-77
2022/10/01 04:57:20;;;;;;;33.08;21.00;;;;;;;;;;4994163;28;20042;-79
2022/10/01 04:59:46;;;;;;;32.00;21.65;;;;;;;;;;4995436;28;20026;-81
2022/10/01 05:02:12;;;;;;;29.27;18.80;;;;;;;;;;4993886;28;20124;-77
2022/10/01 05:04:38;;;;;;;29.27;19.83;;;;;;;;;;4994094;28;20032;-78
2022/10/01 05:07:05;;;;;;;31.95;20.63;;;;;;;;;;4994127;28;20069;-77
2022/10/01 05:09:31;;;;;;;32.58;19.58;;;;;;;;;;4995266;28;20495;-79
2022/10/01 05:11:57;;;;;;;32.47;20.73;;;;;;;;;;4994018;28;20026;-79
2022/10/01 05:14:24;;;;;;;31.10;18.65;;;;;;;;;;4993913;28;20022;-79
2022/10/01 05:16:51;;;;;;;33.83;19.55;;;;;;;;;;4993588;28;20053;-79
2022/10/01 05:19:17;;;;;;;25.42;16.50;;;;;;;;;;4993673;28;20391;-77
2022/10/01 05:21:43;;;;;;;27.55;17.27;;;;;;;;;;4993832;28;20031;-80
2022/10/01 05:24:09;;;;;;;31.83;19.23;;;;;;;;;;4993616;28;20088;-76
2022/10/01 05:26:36;;;;;;;28.13;17.80;;;;;;;;;;4993400;28;20121;-79
2022/10/01 05:29:03;;;;;;;30.20;18.23;;;;;;;;;;4993567;28;20042;-80
2022/10/01 05:31:29;;;;;;;31.05;17.38;;;;;;;;;;4993526;28;20057;-76
2022/10/01 05:33:55;;;;;;;28.58;16.77;;;;;;;;;;4993791;28;20415;-78
2022/10/01 05:36:24;;;;;;;28.45;17.08;;;;;;;;;;5000446;28;20043;-80
2022/10/01 05:38:51;;;;;;;25.88;17.80;;;;;;;;;;4994874;28;20084;-78
2022/10/01 05:41:29;;;;;;;26.35;16.75;;;;;;;;;;4993490;28;20121;-78
2022/10/01 05:43:55;;;;;;;26.13;17.85;;;;;;;;;;4994639;28;20038;-83
2022/10/01 05:46:21;;;;;;;27.42;15.82;;;;;;;;;;4994599;28;20034;-78
2022/10/01 05:48:50;;;;;;;30.25;17.35;;;;;;;;;;4993804;28;20026;-77
2022/10/01 05:51:17;;;;;;;25.80;17.83;;;;;;;;;;4994654;28;20815;-83
2022/10/01 05:53:44;;;;;;;28.83;18.10;;;;;;;;;;4993596;28;20026;-80
2022/10/01 05:56:11;;;;;;;28.10;17.55;;;;;;;;;;4993682;28;20121;-79
2022/10/01 05:58:38;;;;;;;27.23;15.52;;;;;;;;;;4994920;28;20053;-85
2022/10/01 06:01:04;;;;;;;29.40;17.85;;;;;;;;;;4993486;28;20019;-81
2022/10/01 06:03:30;;;;;;;27.67;15.13;;;;;;;;;;4993367;28;20464;-81
2022/10/01 06:05:56;;;;;;;24.08;14.98;;;;;;;;;;4993462;28;20030;-87
2022/10/01 06:08:23;;;;;;;25.80;16.85;;;;;;;;;;4993715;28;20030;-87
2022/10/01 06:10:49;;;;;;;27.20;16.95;;;;;;;;;;4994292;28;20471;-87
2022/10/01 06:13:17;;;;;;;25.40;17.08;;;;;;;;;;4995681;28;20026;-77
2022/10/01 06:15:47;;;;;;;28.83;17.50;;;;;;;;;;5001370;28;20480;-77
2022/10/01 06:18:13;;;;;;;32.65;17.80;;;;;;;;;;4993382;28;20062;-76
2022/10/01 06:20:41;;;;;;;29.60;17.90;;;;;;;;;;4994144;28;20480;-91
2022/10/01 06:23:11;;;;;;;26.83;16.00;;;;;;;;;;4995858;28;20057;-83
2022/10/01 06:25:37;;;;;;;31.92;16.92;;;;;;;;;;4995331;28;20036;-81
2022/10/01 06:28:07;;;;;;;25.70;17.35;;;;;;;;;;4999502;28;20551;-85
2022/10/01 06:30:35;;;;;;;28.98;17.50;;;;;;;;;;4996656;28;20054;-83
2022/10/01 06:33:02;;;;;;;27.67;17.90;;;;;;;;;;4992999;28;20037;-83
2022/10/01 06:35:28;;;;;;;27.02;14.85;;;;;;;;;;4992935;28;20081;-81
2022/10/01 06:37:54;;;;;;;26.27;16.80;;;;;;;;;;4993076;28;20549;-82
2022/10/01 06:40:20;;;;;;;27.23;15.55;;;;;;;;;;4993742;28;20034;-79
2022/10/01 06:42:47;;;;;;;28.52;17.45;;;;;;;;;;4992824;28;20414;-78
2022/10/01 06:45:14;;;;;;;26.73;17.17;;;;;;;;;;4993212;28;20113;-78
2022/10/01 06:47:40;;;;;;;26.13;17.08;;;;;;;;;;4994400;28;20061;-80
2022/10/01 06:50:07;;;;;;;24.75;14.95;;;;;;;;;;5010389;28;20048;-83
2022/10/01 06:52:48;;;;;;;27.80;17.08;;;;;;;;;;5013076;28;20022;-86
2022/10/01 06:55:15;;;;;;;30.60;16.75;;;;;;;;;;5013454;28;20101;-78
2022/10/01 06:57:41;;;;;;;25.38;14.95;;;;;;;;;;5012051;28;20049;-82
2022/10/01 07:00:08;;;;;;;28.52;16.65;;;;;;;;;;5012427;28;20105;-81
2022/10/01 07:02:34;;;;;;;26.92;15.95;;;;;;;;;;5015805;28;20045;-81
2022/10/01 07:05:00;;;;;;;27.48;16.88;;;;;;;;;;5015902;28;20076;-80
2022/10/01 07:07:32;;;;;;;25.30;15.77;;;;;;;;;;5016146;28;20036;-79
2022/10/01 07:09:59;;;;;;;23.70;15.13;;;;;;;;;;5015658;28;20018;-80
2022/10/01 07:12:25;;;;;;;26.80;16.05;;;;;;;;;;5015617;28;20548;-81
2022/10/01 07:14:51;;;;;;;26.15;14.90;;;;;;;;;;5015992;28;20031;-81
2022/10/01 07:17:17;;;;;;;25.48;16.77;;;;;;;;;;5015557;28;20050;-80
2022/10/01 07:19:43;;;;;;;25.95;16.35;;;;;;;;;;5015702;28;20096;-79
2022/10/01 07:22:10;;;;;;;24.33;16.08;;;;;;;;;;5016920;28;20052;-81
2022/10/01 07:24:36;;;;;;;23.73;15.23;;;;;;;;;;5010564;28;20578;-81
2022/10/01 07:27:02;;;;;;;22.85;15.07;;;;;;;;;;4998967;28;20488;-82
2022/10/01 07:29:29;;;;;;;25.58;15.88;;;;;;;;;;4996360;28;20030;-81
2022/10/01 07:31:58;;;;;;;22.27;14.95;;;;;;;;;;4996130;28;20031;-81
2022/10/01 07:34:24;;;;;;;21.75;14.55;;;;;;;;;;4995621;28;20034;-82
2022/10/01 07:36:50;;;;;;;20.92;14.05;;;;;;;;;;4995802;28;20057;-81
2022/10/01 07:39:16;;;;;;;24.30;14.30;;;;;;;;;;4996241;28;20566;-83
2022/10/01 07:41:43;;;;;;;22.33;15.02;;;;;;;;;;4995845;28;20106;-86
2022/10/01 07:44:12;;;;;;;25.35;15.70;;;;;;;;;;4995670;28;20042;-81
2022/10/01 07:46:38;;;;;;;18.42;13.32;;;;;;;;;;4995567;28;20033;-78
2022/10/01 07:49:05;;;;;;;22.50;14.75;;;;;;;;;;4997232;28;20027;-80
2022/10/01 07:51:35;;;;;;;21.85;13.75;;;;;;;;;;4996796;28;20041;-80
2022/10/01 07:54:02;;;;;;;20.85;12.93;;;;;;;;;;4995936;28;20033;-82
2022/10/01 07:56:28;;;;;;;17.25;11.30;;;;;;;;;;4995801;28;20073;-84
2022/10/01 07:58:54;;;;;;;20.75;11.35;;;;;;;;;;4995909;28;20033;-82
2022/10/01 08:01:21;;;;;;;14.93;11.00;;;;;;;;;;4996089;28;20027;-82
2022/10/01 08:03:50;;;;;;;15.85;10.68;;;;;;;;;;4995564;28;20038;-84
2022/10/01 08:06:17;;;;;;;17.05;11.40;;;;;;;;;;4995520;28;20026;-84
2022/10/01 08:08:44;;;;;;;14.35;10.02;;;;;;;;;;5008177;28;20399;-83
2022/10/01 08:11:12;;;;;;;16.38;9.85;;;;;;;;;;5014866;28;20109;-83
2022/10/01 08:13:39;;;;;;;14.10;9.82;;;;;;;;;;5013882;28;20030;-81
2022/10/01 08:16:06;;;;;;;15.23;8.38;;;;;;;;;;5014864;28;20026;-82
2022/10/01 08:18:33;;;;;;;17.48;9.68;;;;;;;;;;5014913;28;20025;-82
2022/10/01 08:21:02;;;;;;;14.23;9.95;;;;;;;;;;5014856;28;20041;-83
2022/10/01 08:23:30;;;;;;;13.48;8.75;;;;;;;;;;5014835;28;20080;-82
2022/10/01 08:26:04;;;;;;;12.13;8.45;;;;;;;;;;5014978;28;20482;-81
2022/10/01 08:28:30;;;;;;;11.98;7.30;;;;;;;;;;5014450;28;20026;-82
2022/10/01 08:30:56;;;;;;;10.80;7.43;;;;;;;;;;5014354;28;20030;-82
2022/10/01 08:33:23;;;;;;;11.50;8.02;;;;;;;;;;5014566;28;20392;-82
2022/10/01 08:35:49;;;;;;;12.00;7.90;;;;;;;;;;5012480;28;20027;-85
2022/10/01 08:38:15;;;;;;;11.95;8.05;;;;;;;;;;4995637;28;20041;-88
2022/10/01 08:40:46;;;;;;;12.65;7.60;;;;;;;;;;4995500;28;20541;-82
2022/10/01 08:43:41;;;;;;;14.65;8.95;;;;;;;;;;4994901;28;20507;-87
2022/10/01 08:46:15;;;;;;;11.88;8.65;;;;;;;;;;4979254;28;20092;-87
2022/10/01 08:48:50;;;;;;;14.57;8.88;;;;;;;;;;4995733;28;20035;-85
2022/10/01 08:51:23;;;;;;;12.93;8.45;;;;;;;;;;4995216;28;20034;-86
2022/10/01 08:53:53;;;;;;;14.88;9.05;;;;;;;;;;4995108;28;20031;-84
2022/10/01 08:56:29;;;;;;;14.50;9.02;;;;;;;;;;4995958;28;20125;-89
2022/10/01 08:59:09;;;;;;;11.38;7.47;;;;;;;;;;4996100;28;20050;-87
2022/10/01 09:01:36;;;;;;;14.13;9.00;;;;;;;;;;4994555;28;20019;-82
2022/10/01 09:04:04;;;;;;;14.68;8.73;;;;;;;;;;5004033;28;20029;-84
2022/10/01 09:06:30;;;;;;;12.40;8.10;;;;;;;;;;5014206;28;20022;-80
2022/10/01 09:08:56;;;;;;;15.00;8.43;;;;;;;;;;5015637;28;20069;-81
2022/10/01 09:11:44;;;;;;;14.25;8.13;;;;;;;;;;5013990;28;20030;-84
2022/10/01 09:14:23;;;;;;;13.90;8.60;;;;;;;;;;5015023;28;20132;-83
2022/10/01 09:16:49;;;;;;;13.75;8.88;;;;;;;;;;5014950;28;20114;-81
2022/10/01 09:19:15;;;;;;;14.38;8.10;;;;;;;;;;5015580;28;20022;-84
2022/10/01 09:21:57;;;;;;;14.18;9.80;;;;;;;;;;5015193;28;20026;-87
2022/10/01 09:24:30;;;;;;;12.45;8.13;;;;;;;;;;5014040;28;20034;-85
2022/10/01 09:26:56;;;;;;;12.00;8.40;;;;;;;;;;5013978;28;20394;-84
2022/10/01 09:29:43;;;;;;;13.55;8.65;;;;;;;;;;5013946;28;20030;-83
2022/10/01 09:32:14;;;;;;;17.02;9.55;;;;;;;;;;5013904;28;20066;-82
2022/10/01 09:34:42;;;;;;;13.40;9.05;;;;;;;;;;5013774;28;20022;-84
2022/10/01 09:37:27;;;;;;;11.48;7.75;;;;;;;;;;5013763;28;20132;-79
2022/10/01 09:39:59;;;;;;;11.48;7.57;;;;;;;;;;5014612;28;20022;-87
2022/10/01 09:42:30;;;;;;;13.18;8.30;;;;;;;;;;5014532;28;20710;-89
2022/10/01 09:44:56;;;;;;;10.98;7.65;;;;;;;;;;5016416;28;20518;-80
2022/10/01 09:47:24;;;;;;;11.68;7.60;;;;;;;;;;5014075;28;20368;-83
2022/10/01 09:49:51;;;;;;;12.18;8.07;;;;;;;;;;5015563;28;20025;-83
2022/10/01 09:52:51;;;;;;;14.43;8.02;;;;;;;;;;5016770;28;20054;-84
2022/10/01 09:55:26;;;;;;;14.20;10.00;;;;;;;;;;5019552;28;20026;-92
2022/10/01 09:58:04;;;;;;;12.88;7.93;;;;;;;;;;5012152;28;20121;-89
2022/10/01 10:00:37;;;;;;;13.30;8.73;;;;;;;;;;5017633;28;20448;-82
2022/10/01 10:03:03;;;;;;;12.38;8.48;;;;;;;;;;5022894;28;20501;-92
2022/10/01 10:05:38;;;;;;;11.75;8.13;;;;;;;;;;5015235;28;20026;-89
2022/10/01 10:08:13;;;;;;;11.98;8.38;;;;;;;;;;5007108;28;20041;-86
2022/10/01 10:10:40;;;;;;;12.25;8.27;;;;;;;;;;5004455;28;20030;-83
2022/10/01 10:15:48;;;;;;;15.20;8.45;;;;;;;;;;5082560;22;20049;-85
2022/10/01 10:18:27;;;;;;;16.02;9.38;;;;;;;;;;5037211;28;20028;-86
2022/10/01 10:23:56;;;;;;;;;;;;;;;;;;5054757;28;20457;-87
2022/10/01 10:29:59;;;;;;;16.75;8.95;;;;;;;;;;5053980;28;20128;-86
2022/10/01 10:35:57;;;;;;;12.95;9.05;;;;;;;;;;5053820;28;20086;-89
2022/10/01 10:40:49;;;;;;;12.32;8.57;;;;;;;;;;5101458;22;20041;-88
2022/10/01 10:43:21;;;;;;;12.98;9.18;;;;;;;;;;5036402;28;20099;-86
2022/10/01 10:45:55;;;;;;;14.52;9.57;;;;;;;;;;5052634;28;20079;-88
2022/10/01 10:48:22;;;;;;;13.25;9.45;;;;;;;;;;5053545;28;20021;-82
2022/10/01 10:51:14;;;;;;;14.10;9.65;;;;;;;;;;5053861;28;20057;-86
2022/10/01 10:56:07;;;;;;;14.52;9.45;;;;;;;;;;5044863;22;20096;-87
2022/10/01 10:58:52;;;;;;;13.63;9.80;;;;;;;;;;5016697;28;20025;-90
2022/10/01 11:01:30;;;;;;;16.42;9.50;;;;;;;;;;5017071;28;20359;-81
2022/10/01 11:03:58;;;;;;;13.02;7.85;;;;;;;;;;5016897;28;20030;-85
2022/10/01 11:06:24;;;;;;;13.52;8.45;;;;;;;;;;5016200;28;20121;-79
2022/10/01 11:08:58;;;;;;;12.20;8.70;;;;;;;;;;5016958;28;20025;-83
2022/10/01 11:11:32;;;;;;;14.98;8.63;;;;;;;;;;5016151;28;20022;-83
2022/10/01 11:14:17;;;;;;;11.02;8.32;;;;;;;;;;5015910;28;20030;-80
2022/10/01 11:17:03;;;;;;;11.73;7.70;;;;;;;;;;5016104;28;20033;-86
2022/10/01 11:19:51;;;;;;;11.60;7.93;;;;;;;;;;5016912;28;20034;-89
2022/10/01 11:22:36;;;;;;;14.73;7.97;;;;;;;;;;5017335;28;20026;-89
2022/10/01 11:25:13;;;;;;;16.67;8.27;;;;;;;;;;5016939;28;20033;-88
2022/10/01 11:27:51;;;;;;;12.85;7.15;;;;;;;;;;5016812;28;20032;-90
2022/10/01 11:30:24;;;;;;;8.73;6.30;;;;;;;;;;5035658;28;20025;-83
2022/10/01 11:33:09;;;;;;;12.23;7.28;;;;;;;;;;5034210;28;20035;-85
2022/10/01 11:35:54;;;;;;;9.68;6.97;;;;;;;;;;5016367;28;20067;-86
2022/10/01 11:38:29;;;;;;;12.23;7.22;;;;;;;;;;5023084;28;20076;-88
2022/10/01 11:41:14;;;;;;;10.43;6.68;;;;;;;;;;5016295;28;20030;-81
2022/10/01 11:44:01;;;;;;;9.13;5.85;;;;;;;;;;5015867;28;20025;-83
2022/10/01 11:46:34;;;;;;;9.05;6.20;;;;;;;;;;5016326;28;20033;-83
2022/10/01 11:49:19;;;;;;;11.30;7.00;;;;;;;;;;5020068;28;20022;-82
2022/10/01 11:51:51;;;;;;;10.82;7.22;;;;;;;;;;5018883;28;20395;-81
2022/10/01 11:54:21;;;;;;;11.30;6.15;;;;;;;;;;5018893;28;20041;-87
2022/10/01 11:59:56;;;;;;;13.95;8.10;;;;;;;;;;5036223;28;20099;-83
2022/10/01 12:02:29;;;;;;;10.27;6.65;;;;;;;;;;5018359;28;20056;-83
2022/10/01 12:04:57;;;;;;;10.18;6.95;;;;;;;;;;5018352;28;20394;-86
2022/10/01 12:07:36;;;;;;;11.80;6.95;;;;;;;;;;5027608;28;20032;-82
2022/10/01 12:10:13;;;;;;;9.82;6.97;;;;;;;;;;5002596;28;20041;-80
2022/10/01 12:12:46;;;;;;;11.52;6.93;;;;;;;;;;5015856;28;20053;-83
2022/10/01 12:15:17;;;;;;;9.93;6.13;;;;;;;;;;5017420;28;20458;-81
2022/10/01 12:18:05;;;;;;;7.80;5.53;;;;;;;;;;5014625;28;20038;-83
2022/10/01 12:20:31;;;;;;;10.10;5.88;;;;;;;;;;5016282;28;20750;-86
2022/10/01 12:22:58;;;;;;;9.13;5.22;;;;;;;;;;5015598;28;20437;-84
2022/10/01 12:25:31;;;;;;;6.60;4.35;;;;;;;;;;5016727;28;20022;-88
2022/10/01 12:28:02;;;;;;;10.27;4.88;;;;;;;;;;5016143;28;20045;-87
2022/10/01 12:30:31;;;;;;;6.53;4.07;;;;;;;;;;5017121;28;20081;-86
2022/10/01 12:33:19;;;;;;;7.55;4.53;;;;;;;;;;5016363;28;20030;-85
2022/10/01 12:36:14;;;;;;;7.55;4.78;;;;;;;;;;5015697;28;20041;-82
2022/10/01 12:38:46;;;;;;;8.23;5.15;;;;;;;;;;5000839;28;20038;-81
2022/10/01 12:41:16;;;;;;;7.18;5.13;;;;;;;;;;5014679;28;20037;-84
2022/10/01 12:44:01;;;;;;;7.75;4.97;;;;;;;;;;5014032;28;20550;-83
2022/10/01 12:46:40;;;;;;;8.55;4.97;;;;;;;;;;5016326;28;20026;-85
2022/10/01 12:49:22;;;;;;;5.47;4.00;;;;;;;;;;5015702;28;20014;-82
2022/10/01 12:51:51;;;;;;;6.30;4.30;;;;;;;;;;5014135;28;20026;-83
2022/10/01 12:54:36;;;;;;;7.07;4.57;;;;;;;;;;5015181;28;20050;-82
2022/10/01 12:57:10;;;;;;;8.13;4.28;;;;;;;;;;5023552;28;20049;-82
2022/10/01 12:59:40;;;;;;;6.95;2.88;;;;;;;;;;5001502;28;20037;-82
2022/10/01 13:02:21;;;;;;;4.13;2.60;;;;;;;;;;5014898;28;20046;-83
2022/10/01 13:04:56;;;;;;;4.20;3.00;;;;;;;;;;4997907;28;20029;-82
2022/10/01 13:07:22;;;;;;;6.97;4.75;;;;;;;;;;4997599;28;20025;-83
2022/10/01 13:10:00;;;;;;;7.35;4.38;;;;;;;;;;4998041;28;20022;-83
2022/10/01 13:12:44;;;;;;;6.03;4.00;;;;;;;;;;4999676;28;20030;-83
2022/10/01 13:15:16;;;;;;;4.28;2.38;;;;;;;;;;5034860;28;20085;-82
2022/10/01 13:17:48;;;;;;;3.22;2.10;;;;;;;;;;5033380;28;20037;-82
2022/10/01 13:20:21;;;;;;;6.75;2.90;;;;;;;;;;5031506;28;20022;-83
2022/10/01 13:22:52;;;;;;;4.18;2.65;;;;;;;;;;5030949;28;20037;-82
2022/10/01 13:25:36;;;;;;;5.32;2.55;;;;;;;;;;5034490;28;20059;-81
2022/10/01 13:28:25;;;;;;;3.63;2.20;;;;;;;;;;5033152;28;20037;-81
2022/10/01 13:30:54;;;;;;;3.70;2.47;;;;;;;;;;5006337;28;20029;-81
2022/10/01 13:33:31;;;;;;;3.97;2.50;;;;;;;;;;5021168;28;20033;-83
2022/10/01 13:36:01;;;;;;;4.25;2.40;;;;;;;;;;4996781;28;20026;-82
2022/10/01 13:38:33;;;;;;;5.55;3.30;;;;;;;;;;4998544;28;20159;-86
2022/10/01 13:41:01;;;;;;;6.78;2.60;;;;;;;;;;5016464;28;20021;-82
2022/10/01 13:43:28;;;;;;;4.40;2.60;;;;;;;;;;5016146;28;20490;-82
2022/10/01 13:45:55;;;;;;;7.85;2.95;;;;;;;;;;4998079;28;20030;-82
2022/10/01 13:48:23;;;;;;;3.92;2.60;;;;;;;;;;4998076;28;20080;-85
2022/10/01 13:50:55;;;;;;;3.80;2.35;;;;;;;;;;4997896;28;20030;-85
2022/10/01 13:53:23;;;;;;;3.20;2.23;;;;;;;;;;4997736;28;20145;-87
2022/10/01 13:55:51;;;;;;;3.67;2.40;;;;;;;;;;4993880;28;20058;-84
2022/10/01 13:58:20;;;;;;;4.28;2.45;;;;;;;;;;4994810;28;20061;-86
2022/10/01 14:00:54;;;;;;;3.92;2.55;;;;;;;;;;4994329;28;20113;-86
2022/10/01 14:03:39;;;;;;;4.20;1.90;;;;;;;;;;4995151;28;20084;-88
2022/10/01 14:06:06;;;;;;;4.03;1.90;;;;;;;;;;4994671;28;20032;-87
2022/10/01 14:08:42;;;;;;;4.05;1.80;;;;;;;;;;4994304;28;20084;-86
2022/10/01 14:16:58;;;;;;;7.43;2.20;;;;;;;;;;4995618;28;20057;-86
2022/10/01 14:19:25;;;;;;;7.07;2.25;;;;;;;;;;4996384;28;20049;-88
2022/10/01 14:22:00;;;;;;;3.47;2.13;;;;;;;;;;4996861;28;20030;-87
2022/10/01 14:24:45;;;;;;;18.70;2.50;;;;;;;;;;5010031;28;20041;-85
2022/10/01 14:27:34;;;;;;;4.30;2.10;;;;;;;;;;5002464;28;20088;-84
2022/10/01 14:30:06;;;;;;;5.75;2.05;;;;;;;;;;5002936;28;20112;-85
2022/10/01 14:32:51;;;;;;;5.33;2.30;;;;;;;;;;5003958;28;20483;-83
2022/10/01 14:35:36;;;;;;;7.20;2.40;;;;;;;;;;5004123;28;20049;-83
2022/10/01 14:38:13;;;;;;;5.90;2.60;;;;;;;;;;5007597;28;20025;-83
2022/10/01 14:40:41;;;;;;;6.35;3.08;;;;;;;;;;5001705;28;20034;-83
2022/10/01 14:43:34;;;;;;;15.55;3.00;;;;;;;;;;5007909;28;20468;-86
2022/10/01 14:46:01;;;;;;;7.00;2.88;;;;;;;;;;5023314;28;20037;-82
2022/10/01 14:48:29;;;;;;;5.82;2.50;;;;;;;;;;5000851;28;20344;-83
2022/10/01 14:50:56;;;;;;;5.75;2.35;;;;;;;;;;4994072;28;20026;-85
2022/10/01 14:53:25;;;;;;;3.72;2.22;;;;;;;;;;4993550;28;20506;-85
2022/10/01 14:55:53;;;;;;;4.68;2.85;;;;;;;;;;4994592;28;20077;-84
2022/10/01 14:58:25;;;;;;;13.18;6.55;;;;;;;;;;4994892;28;20034;-83
2022/10/01 15:00:52;;;;;;;12.80;6.47;;;;;;;;;;4994209;28;20022;-89
2022/10/01 15:03:18;;;;;;;7.10;4.03;;;;;;;;;;4994178;28;20053;-84
2022/10/01 15:05:45;;;;;;;5.10;3.25;;;;;;;;;;4993903;28;20034;-86
2022/10/01 15:08:21;;;;;;;8.27;3.90;;;;;;;;;;4993408;28;20034;-90
2022/10/01 15:10:52;;;;;;;6.93;3.13;;;;;;;;;;4993304;28;20097;-88